sensor_id;sensor_type;location;lat;lon;timestamp;P1;durP1;ratioP1;P2;durP2;ratioP2
33672;SDS011;20011;51.510;9.942;2023-02-15T00:01:31;18.75;;;11.95;;
33672;SDS011;20011;51.510;9.942;2023-02-15T00:04:03;18.75;;;11.93;;
33672;SDS011;20011;51.510;9.942;2023-02-15T00:06:32;18.30;;;11.80;;
33672;SDS011;20011;51.510;9.942;2023-02-15T00:09:00;22.77;;;12.65;;
33672;SDS011;20011;51.510;9.942;2023-02-15T00:11:28;26.25;;;15.18;;
33672;SDS011;20011;51.510;9.942;2023-02-15T00:14:11;21.83;;;13.38;;
33672;SDS011;20011;51.510;9.942;2023-02-15T00:16:50;21.20;;;13.43;;
33672;SDS011;20011;51.510;9.942;2023-02-15T00:19:20;24.67;;;14.75;;
33672;SDS011;20011;51.510;9.942;2023-02-15T00:21:48;20.38;;;12.73;;
33672;SDS011;20011;51.510;9.942;2023-02-15T00:24:17;21.02;;;12.68;;
33672;SDS011;20011;51.510;9.942;2023-02-15T00:26:47;25.17;;;13.55;;
33672;SDS011;20011;51.510;9.942;2023-02-15T00:29:28;23.75;;;13.30;;
33672;SDS011;20011;51.510;9.942;2023-02-15T00:31:55;20.17;;;12.23;;
33672;SDS011;20011;51.510;9.942;2023-02-15T00:34:26;24.55;;;13.68;;
33672;SDS011;20011;51.510;9.942;2023-02-15T00:36:56;22.83;;;13.35;;
33672;SDS011;20011;51.510;9.942;2023-02-15T00:39:29;24.70;;;13.70;;
33672;SDS011;20011;51.510;9.942;2023-02-15T00:41:57;22.80;;;12.82;;
33672;SDS011;20011;51.510;9.942;2023-02-15T00:44:28;21.58;;;12.65;;
33672;SDS011;20011;51.510;9.942;2023-02-15T00:46:58;27.95;;;15.35;;
33672;SDS011;20011;51.510;9.942;2023-02-15T00:49:25;24.92;;;13.65;;
33672;SDS011;20011;51.510;9.942;2023-02-15T00:51:58;27.65;;;15.63;;
33672;SDS011;20011;51.510;9.942;2023-02-15T00:54:26;26.67;;;14.77;;
33672;SDS011;20011;51.510;9.942;2023-02-15T00:56:56;27.08;;;16.05;;
33672;SDS011;20011;51.510;9.942;2023-02-15T00:59:31;28.25;;;15.40;;
33672;SDS011;20011;51.510;9.942;2023-02-15T01:02:02;24.73;;;16.08;;
33672;SDS011;20011;51.510;9.942;2023-02-15T01:04:32;26.55;;;14.65;;
33672;SDS011;20011;51.510;9.942;2023-02-15T01:07:02;26.05;;;15.45;;
33672;SDS011;20011;51.510;9.942;2023-02-15T01:09:32;26.30;;;14.70;;
33672;SDS011;20011;51.510;9.942;2023-02-15T01:11:59;25.33;;;14.68;;
33672;SDS011;20011;51.510;9.942;2023-02-15T01:14:27;22.20;;;13.73;;
33672;SDS011;20011;51.510;9.942;2023-02-15T01:16:57;24.90;;;14.15;;
33672;SDS011;20011;51.510;9.942;2023-02-15T01:19:27;23.50;;;13.40;;
33672;SDS011;20011;51.510;9.942;2023-02-15T01:22:00;24.52;;;14.82;;
33672;SDS011;20011;51.510;9.942;2023-02-15T01:24:34;22.55;;;13.95;;
33672;SDS011;20011;51.510;9.942;2023-02-15T01:27:04;25.58;;;14.82;;
33672;SDS011;20011;51.510;9.942;2023-02-15T01:29:42;23.60;;;13.95;;
33672;SDS011;20011;51.510;9.942;2023-02-15T01:32:10;24.80;;;14.32;;
33672;SDS011;20011;51.510;9.942;2023-02-15T01:34:45;25.42;;;14.80;;
33672;SDS011;20011;51.510;9.942;2023-02-15T01:37:16;24.00;;;13.13;;
33672;SDS011;20011;51.510;9.942;2023-02-15T01:42:23;22.83;;;13.38;;
33672;SDS011;20011;51.510;9.942;2023-02-15T01:52:36;27.38;;;15.38;;
33672;SDS011;20011;51.510;9.942;2023-02-15T01:55:06;24.27;;;13.77;;
33672;SDS011;20011;51.510;9.942;2023-02-15T01:57:36;25.02;;;13.70;;
33672;SDS011;20011;51.510;9.942;2023-02-15T02:00:07;31.25;;;15.82;;
33672;SDS011;20011;51.510;9.942;2023-02-15T02:02:38;24.08;;;14.43;;
33672;SDS011;20011;51.510;9.942;2023-02-15T02:05:08;27.23;;;14.93;;
33672;SDS011;20011;51.510;9.942;2023-02-15T02:07:40;23.52;;;14.55;;
33672;SDS011;20011;51.510;9.942;2023-02-15T02:10:11;29.35;;;15.15;;
33672;SDS011;20011;51.510;9.942;2023-02-15T02:12:42;24.27;;;14.35;;
33672;SDS011;20011;51.510;9.942;2023-02-15T02:15:16;27.77;;;14.32;;
33672;SDS011;20011;51.510;9.942;2023-02-15T02:17:54;23.13;;;13.40;;
33672;SDS011;20011;51.510;9.942;2023-02-15T02:24:01;28.63;;;13.30;;
33672;SDS011;20011;51.510;9.942;2023-02-15T02:26:45;23.90;;;14.48;;
33672;SDS011;20011;51.510;9.942;2023-02-15T02:29:56;26.88;;;14.77;;
33672;SDS011;20011;51.510;9.942;2023-02-15T02:41:12;24.77;;;13.57;;
33672;SDS011;20011;51.510;9.942;2023-02-15T02:44:07;22.27;;;14.05;;
33672;SDS011;20011;51.510;9.942;2023-02-15T02:46:46;24.80;;;14.45;;
33672;SDS011;20011;51.510;9.942;2023-02-15T02:49:37;23.40;;;13.85;;
33672;SDS011;20011;51.510;9.942;2023-02-15T02:57:54;21.20;;;12.77;;
33672;SDS011;20011;51.510;9.942;2023-02-15T03:00:54;24.65;;;13.65;;
33672;SDS011;20011;51.510;9.942;2023-02-15T03:03:27;21.15;;;12.38;;
33672;SDS011;20011;51.510;9.942;2023-02-15T03:06:12;21.55;;;12.73;;
33672;SDS011;20011;51.510;9.942;2023-02-15T03:08:48;21.30;;;12.65;;
33672;SDS011;20011;51.510;9.942;2023-02-15T03:11:20;20.98;;;12.73;;
33672;SDS011;20011;51.510;9.942;2023-02-15T03:13:49;20.13;;;11.77;;
33672;SDS011;20011;51.510;9.942;2023-02-15T03:16:18;17.65;;;11.07;;
33672;SDS011;20011;51.510;9.942;2023-02-15T03:18:54;23.80;;;12.40;;
33672;SDS011;20011;51.510;9.942;2023-02-15T03:21:40;21.83;;;13.60;;
33672;SDS011;20011;51.510;9.942;2023-02-15T03:24:20;23.98;;;13.25;;
33672;SDS011;20011;51.510;9.942;2023-02-15T03:26:52;19.42;;;12.50;;
33672;SDS011;20011;51.510;9.942;2023-02-15T03:29:22;21.00;;;12.70;;
33672;SDS011;20011;51.510;9.942;2023-02-15T03:31:54;26.30;;;13.63;;
33672;SDS011;20011;51.510;9.942;2023-02-15T03:34:25;23.52;;;12.82;;
33672;SDS011;20011;51.510;9.942;2023-02-15T03:39:30;25.63;;;14.25;;
33672;SDS011;20011;51.510;9.942;2023-02-15T03:42:06;24.40;;;14.52;;
33672;SDS011;20011;51.510;9.942;2023-02-15T03:44:46;22.95;;;13.68;;
33672;SDS011;20011;51.510;9.942;2023-02-15T03:47:26;24.88;;;14.85;;
33672;SDS011;20011;51.510;9.942;2023-02-15T03:50:06;23.85;;;13.73;;
33672;SDS011;20011;51.510;9.942;2023-02-15T03:52:54;21.70;;;12.48;;
33672;SDS011;20011;51.510;9.942;2023-02-15T03:55:27;22.88;;;13.50;;
33672;SDS011;20011;51.510;9.942;2023-02-15T03:57:54;21.35;;;13.50;;
33672;SDS011;20011;51.510;9.942;2023-02-15T04:03:47;22.75;;;12.45;;
33672;SDS011;20011;51.510;9.942;2023-02-15T04:06:23;27.02;;;12.45;;
33672;SDS011;20011;51.510;9.942;2023-02-15T04:08:51;19.70;;;12.32;;
33672;SDS011;20011;51.510;9.942;2023-02-15T04:11:40;21.67;;;12.52;;
33672;SDS011;20011;51.510;9.942;2023-02-15T04:14:10;21.92;;;13.15;;
33672;SDS011;20011;51.510;9.942;2023-02-15T04:16:56;21.85;;;13.45;;
33672;SDS011;20011;51.510;9.942;2023-02-15T04:19:34;24.77;;;13.68;;
33672;SDS011;20011;51.510;9.942;2023-02-15T04:22:22;24.75;;;14.98;;
33672;SDS011;20011;51.510;9.942;2023-02-15T04:25:10;25.70;;;13.75;;
33672;SDS011;20011;51.510;9.942;2023-02-15T04:27:42;23.80;;;13.82;;
33672;SDS011;20011;51.510;9.942;2023-02-15T04:30:14;23.45;;;13.48;;
33672;SDS011;20011;51.510;9.942;2023-02-15T04:32:44;22.65;;;12.80;;
33672;SDS011;20011;51.510;9.942;2023-02-15T04:35:11;24.90;;;13.48;;
33672;SDS011;20011;51.510;9.942;2023-02-15T04:37:40;21.98;;;12.90;;
33672;SDS011;20011;51.510;9.942;2023-02-15T04:40:09;19.83;;;12.90;;
33672;SDS011;20011;51.510;9.942;2023-02-15T04:42:38;22.88;;;13.07;;
33672;SDS011;20011;51.510;9.942;2023-02-15T04:47:38;21.03;;;12.07;;
33672;SDS011;20011;51.510;9.942;2023-02-15T04:50:09;23.48;;;12.73;;
33672;SDS011;20011;51.510;9.942;2023-02-15T04:52:46;21.45;;;12.82;;
33672;SDS011;20011;51.510;9.942;2023-02-15T04:55:30;19.50;;;12.25;;
33672;SDS011;20011;51.510;9.942;2023-02-15T05:05:17;20.65;;;12.13;;
33672;SDS011;20011;51.510;9.942;2023-02-15T05:08:09;21.00;;;12.02;;
33672;SDS011;20011;51.510;9.942;2023-02-15T05:11:10;18.58;;;12.25;;
33672;SDS011;20011;51.510;9.942;2023-02-15T05:18:01;21.15;;;12.35;;
33672;SDS011;20011;51.510;9.942;2023-02-15T05:21:06;22.25;;;12.32;;
33672;SDS011;20011;51.510;9.942;2023-02-15T05:23:40;19.90;;;12.15;;
33672;SDS011;20011;51.510;9.942;2023-02-15T05:26:52;20.05;;;13.18;;
33672;SDS011;20011;51.510;9.942;2023-02-15T05:30:31;18.92;;;11.20;;
33672;SDS011;20011;51.510;9.942;2023-02-15T05:32:59;21.60;;;13.75;;
33672;SDS011;20011;51.510;9.942;2023-02-15T05:35:26;21.42;;;13.35;;
33672;SDS011;20011;51.510;9.942;2023-02-15T05:37:53;19.08;;;11.88;;
33672;SDS011;20011;51.510;9.942;2023-02-15T05:40:20;20.20;;;12.45;;
33672;SDS011;20011;51.510;9.942;2023-02-15T05:42:47;25.50;;;11.75;;
33672;SDS011;20011;51.510;9.942;2023-02-15T05:45:15;18.40;;;11.30;;
33672;SDS011;20011;51.510;9.942;2023-02-15T05:47:43;17.42;;;10.50;;
33672;SDS011;20011;51.510;9.942;2023-02-15T05:50:10;17.50;;;11.13;;
33672;SDS011;20011;51.510;9.942;2023-02-15T05:52:38;17.08;;;10.63;;
33672;SDS011;20011;51.510;9.942;2023-02-15T05:55:06;18.33;;;11.02;;
33672;SDS011;20011;51.510;9.942;2023-02-15T05:57:35;18.75;;;11.23;;
33672;SDS011;20011;51.510;9.942;2023-02-15T06:00:03;17.27;;;11.65;;
33672;SDS011;20011;51.510;9.942;2023-02-15T06:02:36;17.30;;;11.82;;
33672;SDS011;20011;51.510;9.942;2023-02-15T06:05:05;17.95;;;11.05;;
33672;SDS011;20011;51.510;9.942;2023-02-15T06:07:33;21.10;;;13.00;;
33672;SDS011;20011;51.510;9.942;2023-02-15T06:09:59;18.40;;;12.00;;
33672;SDS011;20011;51.510;9.942;2023-02-15T06:12:26;18.10;;;10.73;;
33672;SDS011;20011;51.510;9.942;2023-02-15T06:14:53;17.77;;;11.82;;
33672;SDS011;20011;51.510;9.942;2023-02-15T06:17:20;18.80;;;11.60;;
33672;SDS011;20011;51.510;9.942;2023-02-15T06:19:48;20.70;;;12.63;;
33672;SDS011;20011;51.510;9.942;2023-02-15T06:22:15;18.05;;;11.75;;
33672;SDS011;20011;51.510;9.942;2023-02-15T06:24:42;21.20;;;12.32;;
33672;SDS011;20011;51.510;9.942;2023-02-15T06:27:09;17.05;;;11.02;;
33672;SDS011;20011;51.510;9.942;2023-02-15T06:29:36;19.77;;;12.02;;
33672;SDS011;20011;51.510;9.942;2023-02-15T06:32:03;17.20;;;11.02;;
33672;SDS011;20011;51.510;9.942;2023-02-15T06:34:30;20.63;;;13.00;;
33672;SDS011;20011;51.510;9.942;2023-02-15T06:36:58;17.90;;;11.57;;
33672;SDS011;20011;51.510;9.942;2023-02-15T06:39:25;17.50;;;12.23;;
33672;SDS011;20011;51.510;9.942;2023-02-15T06:41:52;19.95;;;12.80;;
33672;SDS011;20011;51.510;9.942;2023-02-15T06:44:18;21.05;;;11.57;;
33672;SDS011;20011;51.510;9.942;2023-02-15T06:46:45;21.00;;;12.82;;
33672;SDS011;20011;51.510;9.942;2023-02-15T06:49:12;20.00;;;11.57;;
33672;SDS011;20011;51.510;9.942;2023-02-15T06:51:39;23.65;;;12.13;;
33672;SDS011;20011;51.510;9.942;2023-02-15T06:54:06;19.10;;;12.30;;
33672;SDS011;20011;51.510;9.942;2023-02-15T06:56:34;18.65;;;11.48;;
33672;SDS011;20011;51.510;9.942;2023-02-15T06:59:00;18.38;;;11.85;;
33672;SDS011;20011;51.510;9.942;2023-02-15T07:01:27;14.48;;;10.20;;
33672;SDS011;20011;51.510;9.942;2023-02-15T07:03:55;18.08;;;11.23;;
33672;SDS011;20011;51.510;9.942;2023-02-15T07:06:22;15.60;;;10.38;;
33672;SDS011;20011;51.510;9.942;2023-02-15T07:08:49;17.35;;;10.90;;
33672;SDS011;20011;51.510;9.942;2023-02-15T07:11:16;18.25;;;10.57;;
33672;SDS011;20011;51.510;9.942;2023-02-15T07:14:01;17.45;;;11.07;;
33672;SDS011;20011;51.510;9.942;2023-02-15T07:16:28;18.75;;;11.32;;
33672;SDS011;20011;51.510;9.942;2023-02-15T07:18:55;18.00;;;12.07;;
33672;SDS011;20011;51.510;9.942;2023-02-15T07:21:23;18.27;;;11.73;;
33672;SDS011;20011;51.510;9.942;2023-02-15T07:23:49;19.88;;;12.45;;
33672;SDS011;20011;51.510;9.942;2023-02-15T07:26:16;17.95;;;11.38;;
33672;SDS011;20011;51.510;9.942;2023-02-15T07:28:43;19.95;;;12.02;;
33672;SDS011;20011;51.510;9.942;2023-02-15T07:31:10;19.73;;;11.85;;
33672;SDS011;20011;51.510;9.942;2023-02-15T07:33:37;18.38;;;11.43;;
33672;SDS011;20011;51.510;9.942;2023-02-15T07:36:04;18.52;;;11.23;;
33672;SDS011;20011;51.510;9.942;2023-02-15T07:38:32;17.75;;;10.73;;
33672;SDS011;20011;51.510;9.942;2023-02-15T07:41:01;20.07;;;12.20;;
33672;SDS011;20011;51.510;9.942;2023-02-15T07:43:32;16.30;;;10.18;;
33672;SDS011;20011;51.510;9.942;2023-02-15T07:46:00;19.23;;;11.15;;
33672;SDS011;20011;51.510;9.942;2023-02-15T07:48:28;21.13;;;11.23;;
33672;SDS011;20011;51.510;9.942;2023-02-15T07:51:02;19.48;;;10.60;;
33672;SDS011;20011;51.510;9.942;2023-02-15T07:53:31;21.73;;;12.93;;
33672;SDS011;20011;51.510;9.942;2023-02-15T07:55:59;20.75;;;11.57;;
33672;SDS011;20011;51.510;9.942;2023-02-15T07:58:27;18.92;;;11.52;;
33672;SDS011;20011;51.510;9.942;2023-02-15T08:01:14;18.73;;;11.23;;
33672;SDS011;20011;51.510;9.942;2023-02-15T08:03:41;20.73;;;12.30;;
33672;SDS011;20011;51.510;9.942;2023-02-15T08:06:08;18.50;;;11.02;;
33672;SDS011;20011;51.510;9.942;2023-02-15T08:08:37;21.58;;;12.32;;
33672;SDS011;20011;51.510;9.942;2023-02-15T08:11:06;18.88;;;11.15;;
33672;SDS011;20011;51.510;9.942;2023-02-15T08:16:23;19.77;;;12.18;;
33672;SDS011;20011;51.510;9.942;2023-02-15T08:18:51;20.25;;;13.02;;
33672;SDS011;20011;51.510;9.942;2023-02-15T08:21:19;23.25;;;11.93;;
33672;SDS011;20011;51.510;9.942;2023-02-15T08:23:48;17.80;;;11.20;;
33672;SDS011;20011;51.510;9.942;2023-02-15T08:26:14;18.60;;;11.25;;
33672;SDS011;20011;51.510;9.942;2023-02-15T08:28:43;22.67;;;12.07;;
33672;SDS011;20011;51.510;9.942;2023-02-15T08:31:11;17.88;;;11.15;;
33672;SDS011;20011;51.510;9.942;2023-02-15T08:33:40;19.73;;;11.30;;
33672;SDS011;20011;51.510;9.942;2023-02-15T08:36:09;18.50;;;11.27;;
33672;SDS011;20011;51.510;9.942;2023-02-15T08:38:40;17.75;;;10.38;;
33672;SDS011;20011;51.510;9.942;2023-02-15T08:41:18;21.48;;;11.13;;
33672;SDS011;20011;51.510;9.942;2023-02-15T08:43:48;17.70;;;10.65;;
33672;SDS011;20011;51.510;9.942;2023-02-15T08:46:18;18.83;;;10.63;;
33672;SDS011;20011;51.510;9.942;2023-02-15T08:48:45;16.40;;;10.48;;
33672;SDS011;20011;51.510;9.942;2023-02-15T08:51:14;16.58;;;10.55;;
33672;SDS011;20011;51.510;9.942;2023-02-15T08:53:46;17.52;;;10.23;;
33672;SDS011;20011;51.510;9.942;2023-02-15T08:56:18;20.58;;;11.27;;
33672;SDS011;20011;51.510;9.942;2023-02-15T08:58:47;19.17;;;10.88;;
33672;SDS011;20011;51.510;9.942;2023-02-15T09:01:15;19.13;;;10.85;;
33672;SDS011;20011;51.510;9.942;2023-02-15T09:06:12;18.77;;;11.20;;
33672;SDS011;20011;51.510;9.942;2023-02-15T09:08:39;16.23;;;10.73;;
33672;SDS011;20011;51.510;9.942;2023-02-15T09:13:34;17.73;;;10.18;;
33672;SDS011;20011;51.510;9.942;2023-02-15T09:16:02;17.98;;;11.25;;
33672;SDS011;20011;51.510;9.942;2023-02-15T09:18:31;24.73;;;11.40;;
33672;SDS011;20011;51.510;9.942;2023-02-15T09:21:05;15.85;;;9.95;;
33672;SDS011;20011;51.510;9.942;2023-02-15T09:23:34;17.50;;;10.38;;
33672;SDS011;20011;51.510;9.942;2023-02-15T09:26:02;15.98;;;10.10;;
33672;SDS011;20011;51.510;9.942;2023-02-15T09:28:30;14.40;;;9.25;;
33672;SDS011;20011;51.510;9.942;2023-02-15T09:31:12;17.95;;;9.77;;
33672;SDS011;20011;51.510;9.942;2023-02-15T09:33:42;14.15;;;8.60;;
33672;SDS011;20011;51.510;9.942;2023-02-15T09:36:17;18.98;;;10.55;;
33672;SDS011;20011;51.510;9.942;2023-02-15T09:53:46;16.50;;;10.07;;
33672;SDS011;20011;51.510;9.942;2023-02-15T09:56:48;13.18;;;8.40;;
33672;SDS011;20011;51.510;9.942;2023-02-15T09:59:26;12.70;;;9.05;;
33672;SDS011;20011;51.510;9.942;2023-02-15T10:02:11;14.05;;;9.88;;
33672;SDS011;20011;51.510;9.942;2023-02-15T10:04:49;17.10;;;9.97;;
33672;SDS011;20011;51.510;9.942;2023-02-15T10:07:38;14.50;;;8.50;;
33672;SDS011;20011;51.510;9.942;2023-02-15T10:24:03;15.55;;;10.27;;
33672;SDS011;20011;51.510;9.942;2023-02-15T10:26:50;14.55;;;8.55;;
33672;SDS011;20011;51.510;9.942;2023-02-15T10:31:51;16.60;;;10.63;;
33672;SDS011;20011;51.510;9.942;2023-02-15T10:42:58;17.35;;;10.75;;
33672;SDS011;20011;51.510;9.942;2023-02-15T10:45:49;14.25;;;10.18;;
33672;SDS011;20011;51.510;9.942;2023-02-15T10:48:44;16.70;;;10.15;;
33672;SDS011;20011;51.510;9.942;2023-02-15T10:51:36;26.30;;;10.40;;
33672;SDS011;20011;51.510;9.942;2023-02-15T10:54:46;15.90;;;10.25;;
33672;SDS011;20011;51.510;9.942;2023-02-15T10:57:32;18.60;;;11.48;;
33672;SDS011;20011;51.510;9.942;2023-02-15T11:06:09;18.60;;;11.18;;
33672;SDS011;20011;51.510;9.942;2023-02-15T11:08:40;17.58;;;10.57;;
33672;SDS011;20011;51.510;9.942;2023-02-15T11:11:13;20.00;;;11.43;;
33672;SDS011;20011;51.510;9.942;2023-02-15T11:13:50;16.27;;;10.07;;
33672;SDS011;20011;51.510;9.942;2023-02-15T11:16:25;17.77;;;10.40;;
33672;SDS011;20011;51.510;9.942;2023-02-15T11:18:58;18.58;;;10.70;;
33672;SDS011;20011;51.510;9.942;2023-02-15T11:21:36;16.20;;;9.65;;
33672;SDS011;20011;51.510;9.942;2023-02-15T11:24:13;18.17;;;11.18;;
33672;SDS011;20011;51.510;9.942;2023-02-15T11:32:42;17.35;;;10.07;;
33672;SDS011;20011;51.510;9.942;2023-02-15T11:35:42;15.27;;;9.68;;
33672;SDS011;20011;51.510;9.942;2023-02-15T11:38:38;17.80;;;10.77;;
33672;SDS011;20011;51.510;9.942;2023-02-15T11:41:20;16.92;;;10.35;;
33672;SDS011;20011;51.510;9.942;2023-02-15T11:47:36;18.33;;;10.70;;
33672;SDS011;20011;51.510;9.942;2023-02-15T11:50:16;19.13;;;11.15;;
33672;SDS011;20011;51.510;9.942;2023-02-15T11:53:20;13.75;;;9.18;;
33672;SDS011;20011;51.510;9.942;2023-02-15T11:55:51;16.05;;;9.75;;
33672;SDS011;20011;51.510;9.942;2023-02-15T12:01:34;16.23;;;10.75;;
33672;SDS011;20011;51.510;9.942;2023-02-15T12:09:49;18.77;;;10.45;;
33672;SDS011;20011;51.510;9.942;2023-02-15T12:12:40;17.00;;;10.45;;
33672;SDS011;20011;51.510;9.942;2023-02-15T12:15:09;18.08;;;10.60;;
33672;SDS011;20011;51.510;9.942;2023-02-15T12:17:50;17.60;;;10.82;;
33672;SDS011;20011;51.510;9.942;2023-02-15T12:23:00;19.15;;;10.80;;
33672;SDS011;20011;51.510;9.942;2023-02-15T12:25:39;19.08;;;10.93;;
33672;SDS011;20011;51.510;9.942;2023-02-15T12:28:38;18.08;;;10.73;;
33672;SDS011;20011;51.510;9.942;2023-02-15T12:31:26;18.10;;;11.25;;
33672;SDS011;20011;51.510;9.942;2023-02-15T12:37:02;20.27;;;10.93;;
33672;SDS011;20011;51.510;9.942;2023-02-15T12:39:56;16.08;;;9.77;;
33672;SDS011;20011;51.510;9.942;2023-02-15T12:42:44;17.17;;;10.75;;
33672;SDS011;20011;51.510;9.942;2023-02-15T12:45:28;20.40;;;11.10;;
33672;SDS011;20011;51.510;9.942;2023-02-15T12:50:51;16.73;;;10.50;;
33672;SDS011;20011;51.510;9.942;2023-02-15T12:53:36;18.00;;;10.90;;
33672;SDS011;20011;51.510;9.942;2023-02-15T13:03:18;19.10;;;10.23;;
33672;SDS011;20011;51.510;9.942;2023-02-15T13:06:12;18.52;;;11.10;;
33672;SDS011;20011;51.510;9.942;2023-02-15T13:12:29;17.98;;;10.13;;
33672;SDS011;20011;51.510;9.942;2023-02-15T13:18:31;15.60;;;10.10;;
33672;SDS011;20011;51.510;9.942;2023-02-15T13:21:51;17.17;;;10.25;;
33672;SDS011;20011;51.510;9.942;2023-02-15T13:24:45;17.15;;;10.25;;
33672;SDS011;20011;51.510;9.942;2023-02-15T13:27:41;16.55;;;10.20;;
33672;SDS011;20011;51.510;9.942;2023-02-15T13:30:27;16.00;;;9.90;;
33672;SDS011;20011;51.510;9.942;2023-02-15T13:33:16;15.45;;;9.95;;
33672;SDS011;20011;51.510;9.942;2023-02-15T13:36:16;14.48;;;10.02;;
33672;SDS011;20011;51.510;9.942;2023-02-15T13:45:14;19.60;;;10.13;;
33672;SDS011;20011;51.510;9.942;2023-02-15T13:51:22;20.50;;;9.18;;
33672;SDS011;20011;51.510;9.942;2023-02-15T13:54:22;18.38;;;10.40;;
33672;SDS011;20011;51.510;9.942;2023-02-15T14:06:28;15.38;;;9.35;;
33672;SDS011;20011;51.510;9.942;2023-02-15T14:09:22;14.45;;;9.35;;
33672;SDS011;20011;51.510;9.942;2023-02-15T14:17:47;15.90;;;9.38;;
33672;SDS011;20011;51.510;9.942;2023-02-15T14:20:45;15.38;;;9.95;;
33672;SDS011;20011;51.510;9.942;2023-02-15T14:26:45;17.40;;;9.77;;
33672;SDS011;20011;51.510;9.942;2023-02-15T14:35:20;14.02;;;8.60;;
33672;SDS011;20011;51.510;9.942;2023-02-15T14:49:19;17.55;;;8.82;;
33672;SDS011;20011;51.510;9.942;2023-02-15T14:56:44;13.68;;;9.68;;
33672;SDS011;20011;51.510;9.942;2023-02-15T14:59:19;14.85;;;9.23;;
33672;SDS011;20011;51.510;9.942;2023-02-15T15:02:39;14.43;;;8.77;;
33672;SDS011;20011;51.510;9.942;2023-02-15T15:07:42;19.05;;;9.48;;
33672;SDS011;20011;51.510;9.942;2023-02-15T15:18:05;18.08;;;10.73;;
33672;SDS011;20011;51.510;9.942;2023-02-15T15:43:31;16.50;;;10.55;;
33672;SDS011;20011;51.510;9.942;2023-02-15T15:46:10;13.52;;;8.95;;
33672;SDS011;20011;51.510;9.942;2023-02-15T15:48:40;19.67;;;10.15;;
33672;SDS011;20011;51.510;9.942;2023-02-15T15:51:17;13.85;;;9.38;;
33672;SDS011;20011;51.510;9.942;2023-02-15T15:53:47;16.95;;;9.20;;
33672;SDS011;20011;51.510;9.942;2023-02-15T15:56:20;14.30;;;8.93;;
33672;SDS011;20011;51.510;9.942;2023-02-15T15:58:55;16.25;;;9.48;;
33672;SDS011;20011;51.510;9.942;2023-02-15T16:01:26;15.95;;;9.98;;
33672;SDS011;20011;51.510;9.942;2023-02-15T16:03:56;17.10;;;10.05;;
33672;SDS011;20011;51.510;9.942;2023-02-15T16:08:56;18.73;;;10.68;;
33672;SDS011;20011;51.510;9.942;2023-02-15T16:11:27;17.88;;;10.15;;
33672;SDS011;20011;51.510;9.942;2023-02-15T16:13:56;17.48;;;10.55;;
33672;SDS011;20011;51.510;9.942;2023-02-15T16:16:24;17.17;;;10.13;;
33672;SDS011;20011;51.510;9.942;2023-02-15T16:18:57;17.85;;;10.57;;
33672;SDS011;20011;51.510;9.942;2023-02-15T16:21:30;22.77;;;10.60;;
33672;SDS011;20011;51.510;9.942;2023-02-15T16:29:23;16.35;;;11.13;;
33672;SDS011;20011;51.510;9.942;2023-02-15T16:32:06;22.27;;;11.60;;
33672;SDS011;20011;51.510;9.942;2023-02-15T16:34:50;16.77;;;10.73;;
33672;SDS011;20011;51.510;9.942;2023-02-15T16:37:25;17.42;;;10.48;;
33672;SDS011;20011;51.510;9.942;2023-02-15T16:39:57;20.88;;;12.50;;
33672;SDS011;20011;51.510;9.942;2023-02-15T16:42:25;20.58;;;11.38;;
33672;SDS011;20011;51.510;9.942;2023-02-15T16:44:57;19.65;;;11.23;;
33672;SDS011;20011;51.510;9.942;2023-02-15T16:47:33;19.13;;;12.27;;
33672;SDS011;20011;51.510;9.942;2023-02-15T16:50:05;21.67;;;11.32;;
33672;SDS011;20011;51.510;9.942;2023-02-15T16:52:32;21.52;;;12.30;;
33672;SDS011;20011;51.510;9.942;2023-02-15T16:55:02;23.80;;;14.18;;
33672;SDS011;20011;51.510;9.942;2023-02-15T16:57:32;24.58;;;15.13;;
33672;SDS011;20011;51.510;9.942;2023-02-15T17:00:07;26.30;;;15.63;;
33672;SDS011;20011;51.510;9.942;2023-02-15T17:08:18;22.98;;;13.52;;
33672;SDS011;20011;51.510;9.942;2023-02-15T17:13:26;22.92;;;13.05;;
33672;SDS011;20011;51.510;9.942;2023-02-15T17:18:26;18.73;;;11.57;;
33672;SDS011;20011;51.510;9.942;2023-02-15T17:20:58;25.48;;;14.52;;
33672;SDS011;20011;51.510;9.942;2023-02-15T17:23:32;32.00;;;17.38;;
33672;SDS011;20011;51.510;9.942;2023-02-15T17:26:15;36.45;;;17.65;;
33672;SDS011;20011;51.510;9.942;2023-02-15T17:28:46;33.45;;;19.10;;
33672;SDS011;20011;51.510;9.942;2023-02-15T17:31:17;31.38;;;18.15;;
33672;SDS011;20011;51.510;9.942;2023-02-15T17:33:46;31.30;;;18.48;;
33672;SDS011;20011;51.510;9.942;2023-02-15T17:36:14;30.80;;;17.40;;
33672;SDS011;20011;51.510;9.942;2023-02-15T17:41:25;28.05;;;16.02;;
33672;SDS011;20011;51.510;9.942;2023-02-15T17:43:53;27.98;;;17.02;;
33672;SDS011;20011;51.510;9.942;2023-02-15T17:46:21;28.48;;;16.88;;
33672;SDS011;20011;51.510;9.942;2023-02-15T17:48:52;28.38;;;16.50;;
33672;SDS011;20011;51.510;9.942;2023-02-15T17:51:21;34.22;;;18.52;;
33672;SDS011;20011;51.510;9.942;2023-02-15T17:53:49;40.30;;;20.95;;
33672;SDS011;20011;51.510;9.942;2023-02-15T17:56:35;55.03;;;27.77;;
33672;SDS011;20011;51.510;9.942;2023-02-15T17:59:04;54.20;;;26.52;;
33672;SDS011;20011;51.510;9.942;2023-02-15T18:01:33;55.60;;;25.50;;
33672;SDS011;20011;51.510;9.942;2023-02-15T18:04:20;46.03;;;22.65;;
33672;SDS011;20011;51.510;9.942;2023-02-15T18:07:08;45.30;;;21.88;;
33672;SDS011;20011;51.510;9.942;2023-02-15T18:12:42;36.53;;;17.50;;
33672;SDS011;20011;51.510;9.942;2023-02-15T18:15:09;31.00;;;16.17;;
33672;SDS011;20011;51.510;9.942;2023-02-15T18:17:39;31.80;;;16.85;;
33672;SDS011;20011;51.510;9.942;2023-02-15T18:20:19;28.23;;;14.75;;
33672;SDS011;20011;51.510;9.942;2023-02-15T18:22:50;27.85;;;14.20;;
33672;SDS011;20011;51.510;9.942;2023-02-15T18:25:18;27.23;;;14.88;;
33672;SDS011;20011;51.510;9.942;2023-02-15T18:30:15;26.20;;;13.77;;
33672;SDS011;20011;51.510;9.942;2023-02-15T18:32:45;25.42;;;14.38;;
33672;SDS011;20011;51.510;9.942;2023-02-15T18:35:14;24.40;;;14.43;;
33672;SDS011;20011;51.510;9.942;2023-02-15T18:37:42;25.20;;;14.67;;
33672;SDS011;20011;51.510;9.942;2023-02-15T18:40:16;29.40;;;15.00;;
33672;SDS011;20011;51.510;9.942;2023-02-15T18:42:46;26.58;;;14.68;;
33672;SDS011;20011;51.510;9.942;2023-02-15T18:45:17;27.48;;;15.35;;
33672;SDS011;20011;51.510;9.942;2023-02-15T18:47:44;31.13;;;14.15;;
33672;SDS011;20011;51.510;9.942;2023-02-15T18:50:14;28.45;;;13.93;;
33672;SDS011;20011;51.510;9.942;2023-02-15T18:52:44;27.85;;;14.80;;
33672;SDS011;20011;51.510;9.942;2023-02-15T18:55:16;32.00;;;15.95;;
33672;SDS011;20011;51.510;9.942;2023-02-15T18:57:47;28.13;;;15.90;;
33672;SDS011;20011;51.510;9.942;2023-02-15T19:00:20;25.88;;;16.20;;
33672;SDS011;20011;51.510;9.942;2023-02-15T19:02:50;33.55;;;17.35;;
33672;SDS011;20011;51.510;9.942;2023-02-15T19:05:19;30.85;;;17.60;;
33672;SDS011;20011;51.510;9.942;2023-02-15T19:07:48;30.95;;;17.17;;
33672;SDS011;20011;51.510;9.942;2023-02-15T19:10:17;32.17;;;17.52;;
33672;SDS011;20011;51.510;9.942;2023-02-15T19:12:47;37.22;;;18.48;;
33672;SDS011;20011;51.510;9.942;2023-02-15T19:15:15;36.10;;;18.90;;
33672;SDS011;20011;51.510;9.942;2023-02-15T19:17:45;41.63;;;21.27;;
33672;SDS011;20011;51.510;9.942;2023-02-15T19:20:16;43.50;;;23.45;;